Time;durP1;ratioP1;P1;durP2;ratioP2;P2;SDS_P1;SDS_P2;PMS_P1;PMS_P2;Temp;Humidity;BMP_temperature;BMP_pressure;BME280_temperature;BME280_humidity;BME280_pressure;Samples;Min_cycle;Max_cycle;Signal;HPM_P1;HPM_P2
2021/07/15 00:01:48;;;;;;;1.70;0.75;;;;;;;12.65;100.00;100425.53;5013941;28;20409;-57
2021/07/15 00:04:52;;;;;;;0.55;0.47;;;;;;;12.59;100.00;100428.22;5015299;28;20048;-57
2021/07/15 00:07:56;;;;;;;1.73;0.75;;;;;;;12.73;100.00;100424.72;5015229;28;20030;-57
2021/07/15 00:11:05;;;;;;;2.75;0.73;;;;;;;12.81;100.00;100422.34;5014592;28;20060;-57
2021/07/15 00:14:09;;;;;;;4.95;0.70;;;;;;;12.74;100.00;100420.69;4996622;28;20901;-57
2021/07/15 00:17:12;;;;;;;2.88;1.20;;;;;;;12.73;100.00;100429.53;4996251;28;20048;-57
2021/07/15 00:20:17;;;;;;;2.97;0.95;;;;;;;12.67;100.00;100425.84;4996569;28;20449;-57
2021/07/15 00:23:21;;;;;;;3.28;0.82;;;;;;;12.70;100.00;100424.91;4997283;28;20056;-57
2021/07/15 00:26:26;;;;;;;0.90;0.30;;;;;;;12.67;100.00;100426.63;4998562;28;20521;-57
2021/07/15 00:29:29;;;;;;;9.73;0.95;;;;;;;12.66;100.00;100425.09;4998970;28;20041;-57
2021/07/15 00:32:35;;;;;;;2.25;0.65;;;;;;;12.65;100.00;100422.75;4997676;28;20049;-57
2021/07/15 00:35:40;;;;;;;2.60;0.90;;;;;;;12.65;100.00;100428.34;4996290;28;20622;-55
2021/07/15 00:38:43;;;;;;;5.55;1.20;;;;;;;12.64;100.00;100429.59;5015131;28;20395;-54
2021/07/15 00:41:47;;;;;;;1.88;0.80;;;;;;;12.63;100.00;100436.44;5009201;28;20449;-54
2021/07/15 00:44:51;;;;;;;3.08;0.32;;;;;;;12.66;100.00;100436.25;5015660;28;20041;-54
2021/07/15 00:47:54;;;;;;;6.95;1.30;;;;;;;12.68;100.00;100427.41;5013519;28;20040;-54
2021/07/15 00:50:58;;;;;;;1.50;0.70;;;;;;;12.72;100.00;100427.97;5017592;28;20067;-55
2021/07/15 00:54:01;;;;;;;1.95;0.95;;;;;;;12.69;100.00;100429.72;5017701;28;20051;-55
2021/07/15 00:57:06;;;;;;;1.40;0.65;;;;;;;12.74;100.00;100422.69;5016905;28;20047;-55
2021/07/15 01:00:12;;;;;;;0.63;0.50;;;;;;;12.68;100.00;100421.81;5020171;28;20068;-55
2021/07/15 01:03:21;;;;;;;1.55;0.52;;;;;;;12.64;100.00;100422.00;5021413;28;20033;-55
2021/07/15 01:06:24;;;;;;;1.95;1.38;;;;;;;12.54;100.00;100423.28;5020121;28;20060;-55
2021/07/15 01:09:29;;;;;;;4.30;0.80;;;;;;;12.53;100.00;100416.16;5018508;28;20391;-55
2021/07/15 01:12:52;;;;;;;3.38;1.27;;;;;;;12.61;100.00;100424.94;5017349;28;20048;-55
2021/07/15 01:16:13;;;;;;;2.47;0.40;;;;;;;12.76;100.00;100417.41;5018346;28;20040;-55
2021/07/15 01:19:33;;;;;;;5.00;0.93;;;;;;;12.80;100.00;100412.41;5018404;28;21136;-55
2021/07/15 01:23:17;;;;;;;3.95;0.80;;;;;;;12.69;100.00;100418.53;5017108;28;20036;-55
2021/07/15 01:26:39;;;;;;;2.80;0.60;;;;;;;12.78;100.00;100417.69;5018520;28;20516;-54
2021/07/15 01:30:07;;;;;;;0.88;0.55;;;;;;;12.77;100.00;100425.31;5016143;28;20044;-54
2021/07/15 01:33:42;;;;;;;14.00;1.25;;;;;;;12.63;100.00;100420.44;5016324;28;20068;-55
2021/07/15 01:36:51;;;;;;;2.30;0.80;;;;;;;12.58;100.00;100423.13;5051151;28;20040;-54
2021/07/15 01:39:58;;;;;;;3.08;0.40;;;;;;;12.60;100.00;100420.63;5054074;28;20055;-54
2021/07/15 01:43:17;;;;;;;3.38;1.48;;;;;;;12.68;100.00;100414.19;5053936;28;20040;-54
2021/07/15 01:46:22;;;;;;;3.95;0.68;;;;;;;12.73;100.00;100421.16;5053875;28;20048;-54
2021/07/15 01:49:27;;;;;;;5.28;1.73;;;;;;;12.73;100.00;100423.97;5053586;28;20052;-54
2021/07/15 01:52:31;;;;;;;1.40;0.80;;;;;;;12.76;100.00;100422.97;5053161;28;20052;-54
2021/07/15 01:55:39;;;;;;;2.90;0.90;;;;;;;12.82;100.00;100427.44;5053464;28;20052;-54
2021/07/15 01:58:44;;;;;;;1.25;0.77;;;;;;;12.74;100.00;100419.91;5052177;28;20067;-54
2021/07/15 02:01:51;;;;;;;3.75;1.13;;;;;;;12.71;100.00;100426.47;5053110;28;20064;-54
2021/07/15 02:04:57;;;;;;;1.25;0.30;;;;;;;12.77;100.00;100430.13;5053189;28;20055;-54
2021/07/15 02:08:05;;;;;;;1.70;0.40;;;;;;;12.74;100.00;100436.66;5052947;28;20052;-54
2021/07/15 02:11:13;;;;;;;2.85;0.93;;;;;;;12.93;100.00;100438.06;5053394;28;20076;-54
2021/07/15 02:14:25;;;;;;;3.47;0.82;;;;;;;13.03;100.00;100425.59;5033964;28;20048;-54
2021/07/15 02:17:41;;;;;;;5.32;0.85;;;;;;;13.14;100.00;100430.66;5034038;28;20505;-54
2021/07/15 02:20:48;;;;;;;4.80;1.33;;;;;;;13.23;100.00;100434.13;5032964;28;20040;-54
2021/07/15 02:24:11;;;;;;;1.30;0.95;;;;;;;13.29;100.00;100429.44;5054385;28;20064;-54
2021/07/15 02:27:17;;;;;;;7.30;1.27;;;;;;;13.27;100.00;100426.34;5054782;28;20087;-56
2021/07/15 02:30:21;;;;;;;4.78;0.63;;;;;;;13.21;100.00;100431.03;5052951;28;20039;-56
2021/07/15 02:33:28;;;;;;;2.15;1.08;;;;;;;13.20;100.00;100432.31;5054004;28;20056;-56
2021/07/15 02:36:33;;;;;;;4.78;1.40;;;;;;;13.21;100.00;100425.44;5053777;28;20111;-56
2021/07/15 02:39:37;;;;;;;1.92;0.50;;;;;;;13.32;100.00;100422.09;5053522;28;20104;-56
2021/07/15 02:42:44;;;;;;;2.00;0.70;;;;;;;13.34;100.00;100428.75;5053568;28;20044;-56
2021/07/15 02:45:48;;;;;;;7.63;0.77;;;;;;;13.37;100.00;100432.59;5053296;28;20497;-57
2021/07/15 02:48:51;;;;;;;6.07;1.20;;;;;;;13.45;100.00;100439.38;5053661;28;20048;-56
2021/07/15 02:51:55;;;;;;;1.48;0.57;;;;;;;13.58;100.00;100435.03;5053358;28;20048;-57
2021/07/15 02:54:59;;;;;;;4.80;1.17;;;;;;;13.68;100.00;100439.31;5053471;28;20127;-56
2021/07/15 02:58:18;;;;;;;1.50;0.55;;;;;;;13.84;100.00;100431.66;5053736;28;20469;-56
2021/07/15 03:01:28;;;;;;;3.95;0.80;;;;;;;13.94;100.00;100430.28;5053437;28;20040;-57
2021/07/15 03:04:42;;;;;;;4.10;1.10;;;;;;;13.92;100.00;100436.41;5053289;28;20037;-57
2021/07/15 03:07:49;;;;;;;4.38;1.17;;;;;;;13.97;100.00;100440.53;5053379;28;20059;-57
2021/07/15 03:10:54;;;;;;;3.67;1.15;;;;;;;14.04;100.00;100434.53;5053169;28;20111;-57
2021/07/15 03:14:00;;;;;;;5.72;1.45;;;;;;;14.11;100.00;100434.13;5033035;28;20505;-57
2021/07/15 03:17:09;;;;;;;3.25;0.25;;;;;;;14.21;100.00;100427.16;5032959;28;20394;-55
2021/07/15 03:20:18;;;;;;;3.00;1.05;;;;;;;14.13;100.00;100431.63;5033221;28;20056;-54
2021/07/15 03:23:25;;;;;;;4.20;1.13;;;;;;;14.16;100.00;100437.00;5033113;28;20036;-54
2021/07/15 03:26:31;;;;;;;9.15;1.23;;;;;;;14.22;100.00;100437.09;5033078;28;20057;-54
2021/07/15 03:29:37;;;;;;;1.80;0.55;;;;;;;14.24;100.00;100446.56;5033092;28;20048;-54
2021/07/15 03:32:41;;;;;;;5.55;1.17;;;;;;;14.30;100.00;100443.88;5032864;28;20053;-54
2021/07/15 03:35:46;;;;;;;7.55;0.40;;;;;;;14.36;100.00;100450.31;5032494;28;20402;-54
2021/07/15 03:38:51;;;;;;;4.72;0.90;;;;;;;14.47;100.00;100444.88;5032492;28;20064;-54
2021/07/15 03:41:54;;;;;;;13.80;1.00;;;;;;;14.51;100.00;100445.44;5032885;28;20041;-54
2021/07/15 03:44:59;;;;;;;7.40;2.15;;;;;;;14.52;100.00;100443.41;5032949;28;20037;-54
2021/07/15 03:48:04;;;;;;;3.92;1.38;;;;;;;14.62;100.00;100453.25;5031907;28;20510;-54
2021/07/15 03:51:09;;;;;;;5.57;1.90;;;;;;;14.79;100.00;100460.63;5032611;28;20049;-54
2021/07/15 03:54:14;;;;;;;3.80;1.40;;;;;;;14.88;100.00;100466.09;5032685;28;20052;-54
2021/07/15 03:57:19;;;;;;;4.80;1.27;;;;;;;14.86;100.00;100465.81;5032722;28;20045;-55
2021/07/15 04:00:25;;;;;;;3.78;0.95;;;;;;;14.94;100.00;100461.31;5032983;28;20044;-54
2021/07/15 04:03:31;;;;;;;4.72;1.10;;;;;;;14.97;100.00;100453.97;5032679;28;20049;-54
2021/07/15 04:06:35;;;;;;;13.98;2.47;;;;;;;15.06;100.00;100460.22;5032551;28;20053;-54
2021/07/15 04:09:39;;;;;;;5.22;1.70;;;;;;;15.18;100.00;100464.69;5032499;28;20034;-54
2021/07/15 04:12:47;;;;;;;6.68;1.80;;;;;;;15.12;100.00;100460.25;5042494;28;20052;-55
2021/07/15 04:15:51;;;;;;;7.00;2.03;;;;;;;15.17;100.00;100462.38;5052651;28;20048;-54
2021/07/15 04:18:57;;;;;;;5.82;1.25;;;;;;;15.18;100.00;100467.47;5052330;28;20398;-54
2021/07/15 04:22:04;;;;;;;11.07;1.73;;;;;;;15.39;100.00;100470.28;5052303;28;20048;-54
2021/07/15 04:25:11;;;;;;;3.70;1.33;;;;;;;15.33;100.00;100469.44;5052303;28;20040;-54
2021/07/15 04:28:16;;;;;;;9.40;1.85;;;;;;;15.31;100.00;100474.78;5052191;28;20064;-54
2021/07/15 04:31:26;;;;;;;7.00;1.75;;;;;;;15.33;100.00;100491.91;5052515;28;20044;-54
2021/07/15 04:34:32;;;;;;;4.03;1.25;;;;;;;15.36;100.00;100494.47;5052395;28;20052;-54
2021/07/15 04:37:43;;;;;;;2.63;1.55;;;;;;;15.39;100.00;100490.69;5051692;28;20401;-54
2021/07/15 04:40:49;;;;;;;8.43;1.60;;;;;;;15.44;100.00;100481.56;5052208;28;20044;-55
2021/07/15 04:43:52;;;;;;;9.77;1.17;;;;;;;15.48;100.00;100487.00;5052285;28;20040;-54
2021/07/15 04:46:57;;;;;;;5.53;2.20;;;;;;;15.49;100.00;100480.09;5052273;28;20048;-54
2021/07/15 04:50:00;;;;;;;4.50;1.73;;;;;;;15.50;100.00;100490.06;5055642;28;20055;-54
2021/07/15 04:53:11;;;;;;;5.18;1.25;;;;;;;15.44;100.00;100486.44;5055813;28;20040;-54
2021/07/15 04:56:16;;;;;;;3.75;1.20;;;;;;;15.41;100.00;100488.16;5055417;28;20044;-54
2021/07/15 04:59:19;;;;;;;4.55;1.67;;;;;;;15.42;100.00;100486.13;5055728;28;20068;-54
2021/07/15 05:02:23;;;;;;;3.83;1.00;;;;;;;15.42;100.00;100492.50;5055588;28;20063;-54
2021/07/15 05:05:27;;;;;;;2.97;1.25;;;;;;;15.49;100.00;100486.50;5055874;28;20108;-54
2021/07/15 05:08:32;;;;;;;1.55;0.63;;;;;;;15.60;100.00;100502.69;5055418;28;20123;-54
2021/07/15 05:11:36;;;;;;;2.53;1.00;;;;;;;15.59;100.00;100492.72;5055007;28;20048;-54
2021/07/15 05:14:42;;;;;;;1.42;0.50;;;;;;;15.59;100.00;100492.72;5055489;28;20044;-54
2021/07/15 05:17:45;;;;;;;2.38;0.50;;;;;;;15.66;100.00;100497.88;5055542;28;20067;-54
2021/07/15 05:20:49;;;;;;;3.65;0.73;;;;;;;15.72;100.00;100498.75;5055106;28;20048;-54
2021/07/15 05:23:53;;;;;;;3.08;1.08;;;;;;;15.73;100.00;100503.84;5055240;28;20040;-54
2021/07/15 05:26:56;;;;;;;1.90;0.47;;;;;;;15.68;100.00;100495.38;5054411;28;20052;-54
2021/07/15 05:30:00;;;;;;;3.00;0.68;;;;;;;15.57;100.00;100500.88;5054926;28;20393;-54
2021/07/15 05:33:03;;;;;;;1.30;0.10;;;;;;;15.59;100.00;100501.91;5054821;28;20382;-54
2021/07/15 05:36:10;;;;;;;1.02;0.63;;;;;;;15.67;100.00;100511.47;5054936;28;20063;-54
2021/07/15 05:39:15;;;;;;;3.08;0.55;;;;;;;15.82;100.00;100494.50;5065818;28;20045;-54
2021/07/15 05:42:19;;;;;;;3.00;0.55;;;;;;;15.85;100.00;100499.13;5054680;28;20036;-55
2021/07/15 05:45:22;;;;;;;5.50;0.65;;;;;;;15.78;100.00;100499.56;5055081;28;20059;-55
2021/07/15 05:48:26;;;;;;;4.38;0.47;;;;;;;15.73;100.00;100500.25;5054895;28;20040;-55
2021/07/15 05:51:29;;;;;;;1.88;0.57;;;;;;;15.72;100.00;100521.22;5054562;28;20044;-55
2021/07/15 05:54:33;;;;;;;4.53;0.45;;;;;;;15.76;100.00;100522.53;5054656;28;20047;-55
2021/07/15 05:57:36;;;;;;;2.35;0.50;;;;;;;15.67;100.00;100533.91;5054492;28;20513;-55
2021/07/15 06:00:40;;;;;;;2.15;0.40;;;;;;;15.65;100.00;100541.28;5054150;28;20040;-55
2021/07/15 06:03:43;;;;;;;0.50;0.20;;;;;;;15.63;100.00;100535.41;5054331;28;20386;-54
2021/07/15 06:06:46;;;;;;;0.90;0.25;;;;;;;15.67;100.00;100544.38;5054521;28;20513;-54
2021/07/15 06:09:49;;;;;;;1.05;0.13;;;;;;;15.66;100.00;100549.22;5054168;28;20406;-54
2021/07/15 06:12:54;;;;;;;1.60;0.13;;;;;;;15.75;100.00;100548.28;5053375;28;20047;-55
2021/07/15 06:15:58;;;;;;;0.80;0.28;;;;;;;15.77;100.00;100554.19;5054125;28;20047;-55
2021/07/15 06:19:02;;;;;;;6.22;0.10;;;;;;;15.76;100.00;100555.47;5054246;28;20055;-55
2021/07/15 06:22:05;;;;;;;0.73;0.32;;;;;;;15.74;100.00;100561.53;5053581;28;20401;-55
2021/07/15 06:25:10;;;;;;;1.55;0.28;;;;;;;15.77;100.00;100559.78;5054179;28;20047;-54
2021/07/15 06:28:14;;;;;;;2.13;0.60;;;;;;;15.83;100.00;100569.81;5053853;28;20056;-54
2021/07/15 06:31:17;;;;;;;1.02;0.40;;;;;;;15.72;100.00;100568.94;5053451;28;20040;-55
2021/07/15 06:34:20;;;;;;;0.77;0.20;;;;;;;15.59;100.00;100585.38;5053722;28;20516;-55
2021/07/15 06:37:31;;;;;;;4.65;0.40;;;;;;;15.52;100.00;100583.78;5053560;28;20040;-54
2021/07/15 06:40:35;;;;;;;0.60;0.22;;;;;;;15.71;100.00;100587.03;5053429;28;20540;-55
2021/07/15 06:43:39;;;;;;;7.38;0.40;;;;;;;15.78;100.00;100583.81;5053292;28;20056;-55
2021/07/15 06:46:42;;;;;;;2.65;0.15;;;;;;;15.70;100.00;100589.06;5053440;28;20398;-55
2021/07/15 06:49:46;;;;;;;3.42;0.77;;;;;;;15.80;100.00;100586.91;5053739;28;20044;-55
2021/07/15 06:52:49;;;;;;;1.35;0.10;;;;;;;15.86;100.00;100596.16;5053557;28;20381;-55
2021/07/15 06:55:52;;;;;;;1.55;0.38;;;;;;;15.89;100.00;100597.97;5053454;28;20044;-55
2021/07/15 06:58:56;;;;;;;0.32;0.10;;;;;;;15.90;100.00;100607.94;5053509;28;20052;-55
2021/07/15 07:01:59;;;;;;;7.32;0.32;;;;;;;16.05;100.00;100597.38;5053479;28;20056;-55
2021/07/15 07:05:03;;;;;;;2.28;0.25;;;;;;;16.00;100.00;100609.34;5053227;28;20064;-55
2021/07/15 07:08:07;;;;;;;1.88;0.20;;;;;;;16.08;100.00;100601.25;5053309;28;20048;-55
2021/07/15 07:11:12;;;;;;;1.65;0.20;;;;;;;16.13;100.00;100598.50;5052570;28;20051;-55
2021/07/15 07:14:15;;;;;;;2.90;0.40;;;;;;;16.15;100.00;100607.22;5033203;28;20052;-55
2021/07/15 07:17:19;;;;;;;0.73;0.20;;;;;;;16.28;100.00;100607.59;5033359;28;20044;-55
2021/07/15 07:20:23;;;;;;;1.48;0.10;;;;;;;16.22;100.00;100603.94;5033626;28;20064;-55
2021/07/15 07:23:26;;;;;;;0.25;0.25;;;;;;;16.34;100.00;100605.59;5033107;28;20041;-54
2021/07/15 07:26:29;;;;;;;0.75;0.43;;;;;;;16.50;100.00;100610.63;5033147;28;20060;-55
2021/07/15 07:29:32;;;;;;;2.72;0.47;;;;;;;16.48;100.00;100618.75;5032995;28;20048;-55
2021/07/15 07:32:36;;;;;;;2.38;0.40;;;;;;;16.45;100.00;100616.94;5032942;28;20534;-55
2021/07/15 07:35:40;;;;;;;0.77;0.13;;;;;;;16.36;100.00;100619.94;5032729;28;20048;-55
2021/07/15 07:38:43;;;;;;;1.27;0.20;;;;;;;16.57;100.00;100621.41;5033113;28;20048;-55
2021/07/15 07:41:46;;;;;;;1.60;0.40;;;;;;;16.70;100.00;100623.06;5033288;28;20374;-54
2021/07/15 07:44:50;;;;;;;0.43;0.20;;;;;;;16.73;100.00;100617.19;5033507;28;20052;-55
2021/07/15 07:47:54;;;;;;;0.45;0.10;;;;;;;16.83;100.00;100623.44;5033232;28;20052;-55
2021/07/15 07:51:00;;;;;;;4.38;0.20;;;;;;;17.15;100.00;100624.94;5048438;28;20048;-55
2021/07/15 07:54:04;;;;;;;4.40;0.40;;;;;;;16.98;100.00;100615.59;5051202;28;20449;-55
2021/07/15 07:57:09;;;;;;;1.08;0.30;;;;;;;16.89;100.00;100629.88;5050990;28;20040;-54
2021/07/15 08:00:16;;;;;;;5.72;0.20;;;;;;;17.11;100.00;100621.56;5052478;28;20056;-55
2021/07/15 08:03:20;;;;;;;0.80;0.30;;;;;;;17.24;100.00;100621.88;5051108;28;20374;-55
2021/07/15 08:06:23;;;;;;;3.28;0.38;;;;;;;17.23;100.00;100614.72;5051322;28;20547;-55
2021/07/15 08:09:28;;;;;;;10.05;0.45;;;;;;;17.32;100.00;100611.72;5050736;28;20048;-55
2021/07/15 08:12:31;;;;;;;1.75;0.45;;;;;;;17.24;100.00;100621.88;5050805;28;20661;-55
2021/07/15 08:15:35;;;;;;;0.98;0.10;;;;;;;17.22;100.00;100621.63;5052431;28;20064;-55
2021/07/15 08:18:38;;;;;;;1.95;0.10;;;;;;;17.38;100.00;100620.97;5052073;28;20063;-55
2021/07/15 08:21:42;;;;;;;1.55;0.20;;;;;;;17.26;100.00;100613.75;5052633;28;20048;-55
2021/07/15 08:24:45;;;;;;;2.05;0.10;;;;;;;17.06;100.00;100620.28;5056259;28;20068;-55
2021/07/15 08:27:50;;;;;;;1.15;0.43;;;;;;;17.05;100.00;100620.75;5056411;28;20056;-55
2021/07/15 08:30:53;;;;;;;3.15;0.32;;;;;;;17.11;100.00;100613.88;5056526;28;20052;-55
2021/07/15 08:33:57;;;;;;;0.20;0.10;;;;;;;17.30;100.00;100631.16;5056342;28;20052;-55
2021/07/15 08:37:02;;;;;;;1.70;0.25;;;;;;;17.24;100.00;100627.50;5056039;28;20044;-55
2021/07/15 08:40:08;;;;;;;6.07;0.55;;;;;;;17.20;100.00;100624.16;5056175;28;20048;-55
2021/07/15 08:43:11;;;;;;;3.25;0.68;;;;;;;17.17;100.00;100631.56;5055967;28;20036;-55
2021/07/15 08:46:17;;;;;;;0.75;0.17;;;;;;;17.20;100.00;100643.88;5056120;28;20059;-55
2021/07/15 08:49:21;;;;;;;4.38;0.25;;;;;;;17.12;100.00;100654.84;5056393;28;20059;-55
2021/07/15 08:52:25;;;;;;;0.90;0.20;;;;;;;17.10;100.00;100646.13;5056220;28;20052;-55
2021/07/15 08:58:51;;;;;;;4.20;0.63;;;;;;;17.11;100.00;100644.06;5056079;28;20417;-55
2021/07/15 09:01:56;;;;;;;2.22;0.15;;;;;;;17.13;100.00;100652.81;5055739;28;20516;-55
2021/07/15 09:05:00;;;;;;;2.08;0.20;;;;;;;17.40;100.00;100655.00;5055398;28;20060;-55
2021/07/15 09:08:04;;;;;;;2.70;0.20;;;;;;;17.61;100.00;100650.78;5055417;28;20052;-55
2021/07/15 09:11:07;;;;;;;3.45;0.38;;;;;;;17.90;100.00;100649.63;5055624;28;20381;-55
2021/07/15 09:14:18;;;;;;;0.20;0.10;;;;;;;18.03;100.00;100647.91;5035684;28;20072;-55
2021/07/15 09:17:30;;;;;;;0.77;0.20;;;;;;;17.97;100.00;100647.13;5035161;28;20064;-56
2021/07/15 09:20:33;;;;;;;0.68;0.40;;;;;;;18.02;100.00;100646.34;5035305;28;20049;-56
2021/07/15 09:23:36;;;;;;;0.88;0.20;;;;;;;18.09;100.00;100639.44;5035268;28;20052;-56
2021/07/15 09:26:40;;;;;;;1.42;0.40;;;;;;;18.09;100.00;100640.22;5035106;28;20060;-56
2021/07/15 09:29:45;;;;;;;1.90;0.17;;;;;;;18.24;100.00;100639.22;5035405;28;20059;-56
2021/07/15 09:33:00;;;;;;;0.98;0.25;;;;;;;18.41;100.00;100640.03;5035422;28;20082;-56
2021/07/15 09:36:11;;;;;;;0.85;0.13;;;;;;;18.72;100.00;100634.97;5035489;28;20053;-54
2021/07/15 09:39:26;;;;;;;5.78;0.40;;;;;;;18.78;100.00;100638.53;5035617;28;20053;-54
2021/07/15 09:42:30;;;;;;;3.88;0.20;;;;;;;18.83;100.00;100639.81;5035330;28;20044;-54
2021/07/15 09:45:33;;;;;;;0.47;0.10;;;;;;;18.97;100.00;100627.50;5034941;28;20048;-54
2021/07/15 09:48:37;;;;;;;1.38;0.35;;;;;;;19.19;100.00;100630.28;5035163;28;20497;-54
2021/07/15 09:51:45;;;;;;;2.35;0.75;;;;;;;19.30;100.00;100627.44;5035050;28;20045;-54
2021/07/15 09:54:48;;;;;;;2.13;0.17;;;;;;;19.48;100.00;100626.13;5035011;28;20048;-54
2021/07/15 09:58:04;;;;;;;2.70;0.50;;;;;;;19.70;100.00;100633.75;5035018;28;20063;-54
2021/07/15 10:01:25;;;;;;;1.23;0.10;;;;;;;19.90;100.00;100634.19;5035229;28;20064;-54
2021/07/15 10:04:29;;;;;;;1.98;0.43;;;;;;;20.26;100.00;100635.03;5035124;28;20040;-54
2021/07/15 10:07:32;;;;;;;0.30;0.10;;;;;;;20.67;100.00;100627.28;5034572;28;20501;-54
2021/07/15 10:10:38;;;;;;;3.55;0.47;;;;;;;21.06;100.00;100622.06;5034901;28;20056;-53
2021/07/15 10:13:43;;;;;;;0.55;0.00;;;;;;;21.14;100.00;100620.19;5052075;28;20048;-53
2021/07/15 10:16:47;;;;;;;0.30;0.10;;;;;;;21.13;100.00;100624.31;5053870;28;20036;-54
2021/07/15 10:20:17;;;;;;;1.05;0.10;;;;;;;21.40;100.00;100630.97;5054157;28;20048;-53
2021/07/15 10:23:31;;;;;;;2.45;0.55;;;;;;;20.99;100.00;100630.34;5053932;28;20394;-53
2021/07/15 10:26:35;;;;;;;0.55;0.10;;;;;;;20.90;100.00;100627.84;5053772;28;20060;-54
2021/07/15 10:29:39;;;;;;;0.43;0.03;;;;;;;20.91;100.00;100623.72;5054097;28;20044;-54
2021/07/15 10:32:44;;;;;;;0.82;0.10;;;;;;;20.70;100.00;100629.06;5054059;28;20040;-53
2021/07/15 10:35:47;;;;;;;1.60;0.85;;;;;;;20.80;100.00;100630.25;5053604;28;20063;-54
2021/07/15 10:38:53;;;;;;;4.22;0.30;;;;;;;20.84;100.00;100633.56;5053717;28;20405;-54
2021/07/15 10:41:58;;;;;;;2.90;0.25;;;;;;;20.75;100.00;100621.81;5053731;28;20048;-54
2021/07/15 10:45:03;;;;;;;3.63;0.52;;;;;;;20.77;100.00;100624.91;5053326;28;20040;-53
2021/07/15 10:48:07;;;;;;;4.50;0.43;;;;;;;21.09;100.00;100632.31;5053724;28;20048;-53
2021/07/15 10:51:12;;;;;;;1.63;0.17;;;;;;;21.73;100.00;100636.28;5053493;28;20534;-53
2021/07/15 10:54:19;;;;;;;1.67;0.30;;;;;;;21.79;100.00;100639.03;5052722;28;20048;-53
2021/07/15 10:57:24;;;;;;;1.83;0.10;;;;;;;21.66;100.00;100641.75;5053595;28;20051;-54
2021/07/15 11:00:29;;;;;;;1.52;0.17;;;;;;;21.59;100.00;100636.72;5064042;28;20377;-55
2021/07/15 11:03:32;;;;;;;0.15;0.00;;;;;;;21.62;100.00;100641.28;5053122;28;20048;-55
2021/07/15 11:06:50;;;;;;;0.73;0.17;;;;;;;21.37;100.00;100642.63;5053186;28;20397;-55
2021/07/15 11:10:14;;;;;;;1.75;0.10;;;;;;;21.80;100.00;100646.25;5053178;28;20060;-53
2021/07/15 11:13:27;;;;;;;2.05;0.17;;;;;;;22.47;100.00;100646.09;5053256;28;20048;-53
2021/07/15 11:16:51;;;;;;;0.77;0.10;;;;;;;22.28;100.00;100651.81;5053100;28;20055;-53
2021/07/15 11:20:00;;;;;;;2.88;0.63;;;;;;;22.00;100.00;100656.34;5052823;28;20056;-53
2021/07/15 11:23:09;;;;;;;1.63;0.30;;;;;;;22.11;100.00;100665.44;5052675;28;20457;-53
2021/07/15 11:26:27;;;;;;;0.33;0.10;;;;;;;22.11;100.00;100662.59;5052578;28;20056;-53
2021/07/15 11:29:48;;;;;;;1.33;0.15;;;;;;;22.72;100.00;100661.00;5052677;28;20096;-55
2021/07/15 11:32:51;;;;;;;2.10;0.20;;;;;;;23.11;100.00;100649.72;5052684;28;20111;-56
2021/07/15 11:36:26;;;;;;;1.27;0.17;;;;;;;22.84;100.00;100656.66;5052358;28;20052;-55
2021/07/15 11:39:33;;;;;;;6.35;0.05;;;;;;;22.63;100.00;100664.22;5052342;28;20503;-55
2021/07/15 11:42:46;;;;;;;2.53;0.10;;;;;;;22.25;100.00;100658.56;5052625;28;20033;-55
2021/07/15 11:46:22;;;;;;;1.50;0.22;;;;;;;22.20;100.00;100655.81;5051802;28;20044;-55
2021/07/15 11:49:26;;;;;;;1.67;0.25;;;;;;;22.77;100.00;100674.31;5052557;28;20052;-55
2021/07/15 11:52:31;;;;;;;1.05;0.20;;;;;;;22.46;100.00;100668.03;5050703;28;20048;-55
2021/07/15 11:55:37;;;;;;;0.30;0.10;;;;;;;22.16;100.00;100673.13;5051578;28;20063;-55
2021/07/15 11:58:52;;;;;;;0.40;0.13;;;;;;;21.73;100.00;100680.88;5055480;28;20044;-55
2021/07/15 12:02:08;;;;;;;1.95;0.10;;;;;;;21.43;100.00;100674.50;5055817;28;20397;-55
2021/07/15 12:05:34;;;;;;;1.08;0.20;;;;;;;21.51;100.00;100675.44;5056572;28;20048;-55
2021/07/15 12:08:38;;;;;;;7.50;0.17;;;;;;;21.97;100.00;100666.69;5056384;28;20388;-55
2021/07/15 12:11:42;;;;;;;0.93;0.15;;;;;;;22.49;100.00;100660.53;5055791;28;20100;-55
2021/07/15 12:14:52;;;;;;;0.82;0.10;;;;;;;22.57;100.00;100667.88;5056096;28;20064;-55
2021/07/15 12:18:10;;;;;;;;;;;;;;;22.46;100.00;100659.53;5056400;28;20107;-54
2021/07/15 12:21:18;;;;;;;1.25;0.10;;;;;;;21.99;100.00;100664.06;5055783;28;19913;-55
2021/07/15 12:24:21;;;;;;;0.82;0.30;;;;;;;21.97;100.00;100661.00;5055691;28;20033;-55
2021/07/15 12:27:24;;;;;;;1.85;0.10;;;;;;;22.22;100.00;100662.47;5055293;28;20076;-55
2021/07/15 12:30:50;;;;;;;11.40;1.38;;;;;;;22.90;100.00;100660.16;5055991;28;20048;-55
2021/07/15 12:34:01;;;;;;;0.93;0.30;;;;;;;22.93;100.00;100659.88;5056177;28;20045;-55
2021/07/15 12:37:11;;;;;;;1.75;0.10;;;;;;;22.77;100.00;100662.97;5055727;28;20044;-55
2021/07/15 12:40:14;;;;;;;1.10;0.10;;;;;;;22.77;100.00;100658.06;5055718;28;20044;-56
2021/07/15 12:43:21;;;;;;;0.52;0.22;;;;;;;22.27;100.00;100667.31;5056172;28;20056;-56
2021/07/15 12:46:34;;;;;;;0.55;0.05;;;;;;;22.27;100.00;100650.28;5055671;28;20067;-55
2021/07/15 12:49:39;;;;;;;1.92;0.10;;;;;;;22.80;100.00;100662.66;5055671;28;20059;-53
2021/07/15 12:52:43;;;;;;;0.88;0.30;;;;;;;23.55;100.00;100657.44;5054875;28;20044;-53
2021/07/15 12:55:47;;;;;;;1.92;0.30;;;;;;;23.30;100.00;100650.41;5055492;28;20393;-54
2021/07/15 12:58:56;;;;;;;2.40;0.10;;;;;;;23.05;100.00;100660.41;5055053;28;20059;-53
2021/07/15 13:02:00;;;;;;;2.90;0.30;;;;;;;23.40;100.00;100645.09;5055148;28;20068;-53
2021/07/15 13:05:24;;;;;;;2.28;0.10;;;;;;;23.47;100.00;100659.44;5055336;28;20036;-53
2021/07/15 13:08:48;;;;;;;0.47;0.00;;;;;;;23.34;100.00;100657.34;5054596;28;20044;-53
2021/07/15 13:15:16;;;;;;;0.40;0.17;;;;;;;23.17;100.00;100647.56;5060463;28;20059;-55
2021/07/15 13:18:25;;;;;;;0.43;0.00;;;;;;;23.55;100.00;100651.75;5055105;28;20112;-55
2021/07/15 13:21:29;;;;;;;0.75;0.20;;;;;;;23.43;100.00;100649.69;5054486;28;20048;-55
2021/07/15 13:24:33;;;;;;;1.80;0.10;;;;;;;23.80;100.00;100638.81;5054868;28;20037;-55
2021/07/15 13:27:36;;;;;;;1.60;0.10;;;;;;;23.94;100.00;100642.44;5053608;28;20098;-55
2021/07/15 13:30:40;;;;;;;1.33;0.10;;;;;;;24.23;100.00;100641.31;5054115;28;20397;-55
2021/07/15 13:33:47;;;;;;;1.15;0.20;;;;;;;24.67;100.00;100640.25;5053455;28;20060;-53
2021/07/15 13:36:53;;;;;;;0.43;0.17;;;;;;;24.30;100.00;100648.41;5053998;28;20048;-53
2021/07/15 13:39:59;;;;;;;0.90;0.05;;;;;;;24.06;100.00;100650.19;5053202;28;20052;-53
2021/07/15 13:43:11;;;;;;;0.52;0.20;;;;;;;24.14;100.00;100649.53;5053862;28;20040;-54
2021/07/15 13:46:18;;;;;;;0.43;0.13;;;;;;;24.06;100.00;100644.50;5053755;28;20067;-54
2021/07/15 13:49:21;;;;;;;0.30;0.00;;;;;;;24.15;100.00;100639.69;5053481;28;20052;-53
2021/07/15 13:52:28;;;;;;;0.35;0.10;;;;;;;24.37;100.00;100637.09;5054406;28;20047;-53
2021/07/15 13:55:33;;;;;;;0.30;0.22;;;;;;;24.47;100.00;100643.09;5053973;28;20040;-53
2021/07/15 13:58:36;;;;;;;0.63;0.10;;;;;;;24.91;100.00;100636.31;5053545;28;20044;-54
2021/07/15 14:01:40;;;;;;;0.45;0.10;;;;;;;24.51;100.00;100652.81;5054561;28;20091;-54
2021/07/15 14:04:46;;;;;;;2.30;0.35;;;;;;;24.39;100.00;100647.91;5052824;28;20040;-54
2021/07/15 14:07:50;;;;;;;1.38;0.10;;;;;;;24.57;100.00;100646.97;5053339;28;20063;-54
2021/07/15 14:10:54;;;;;;;1.13;0.10;;;;;;;24.84;100.00;100654.09;5053139;28;20063;-54
2021/07/15 14:13:59;;;;;;;0.68;0.20;;;;;;;24.98;100.00;100652.72;5033929;28;20048;-54
2021/07/15 14:17:06;;;;;;;5.15;0.32;;;;;;;25.08;100.00;100650.88;5033358;28;20044;-54
2021/07/15 14:20:12;;;;;;;1.48;0.35;;;;;;;25.04;100.00;100656.19;5033361;28;20052;-54
2021/07/15 14:23:21;;;;;;;4.28;0.65;;;;;;;24.72;100.00;100652.81;5033673;28;20500;-54
2021/07/15 14:26:25;;;;;;;1.75;0.30;;;;;;;24.54;100.00;100653.78;5032427;28;20053;-54